sensor_id;sensor_type;location;lat;lon;timestamp;P1;durP1;ratioP1;P2;durP2;ratioP2
44358;SDS011;30077;52.474;13.326;2024-02-26T00:03:41;17.07;;;10.13;;
44358;SDS011;30077;52.474;13.326;2024-02-26T00:13:42;19.45;;;10.88;;
44358;SDS011;30077;52.474;13.326;2024-02-26T00:23:43;19.70;;;13.27;;
44358;SDS011;30077;52.474;13.326;2024-02-26T00:33:43;23.20;;;14.07;;
44358;SDS011;30077;52.474;13.326;2024-02-26T00:43:44;26.03;;;16.37;;
44358;SDS011;30077;52.474;13.326;2024-02-26T00:53:45;24.52;;;15.48;;
44358;SDS011;30077;52.474;13.326;2024-02-26T01:03:45;24.70;;;15.30;;
44358;SDS011;30077;52.474;13.326;2024-02-26T01:13:46;25.83;;;14.95;;
44358;SDS011;30077;52.474;13.326;2024-02-26T01:23:47;28.23;;;15.17;;
44358;SDS011;30077;52.474;13.326;2024-02-26T01:33:47;29.73;;;16.40;;
44358;SDS011;30077;52.474;13.326;2024-02-26T01:43:48;25.90;;;14.77;;
44358;SDS011;30077;52.474;13.326;2024-02-26T01:53:49;25.03;;;15.47;;
44358;SDS011;30077;52.474;13.326;2024-02-26T02:03:49;21.05;;;14.88;;
44358;SDS011;30077;52.474;13.326;2024-02-26T02:13:50;23.88;;;14.73;;
44358;SDS011;30077;52.474;13.326;2024-02-26T02:23:51;23.63;;;14.10;;
44358;SDS011;30077;52.474;13.326;2024-02-26T02:33:51;23.17;;;13.27;;
44358;SDS011;30077;52.474;13.326;2024-02-26T02:43:52;20.85;;;13.02;;
44358;SDS011;30077;52.474;13.326;2024-02-26T02:53:53;19.90;;;12.70;;
44358;SDS011;30077;52.474;13.326;2024-02-26T03:03:53;16.27;;;10.65;;
44358;SDS011;30077;52.474;13.326;2024-02-26T03:13:55;18.38;;;10.02;;
44358;SDS011;30077;52.474;13.326;2024-02-26T03:23:55;16.63;;;10.27;;
44358;SDS011;30077;52.474;13.326;2024-02-26T03:33:58;18.23;;;10.40;;
44358;SDS011;30077;52.474;13.326;2024-02-26T03:43:58;16.88;;;10.70;;
44358;SDS011;30077;52.474;13.326;2024-02-26T03:53:59;17.10;;;10.57;;
44358;SDS011;30077;52.474;13.326;2024-02-26T04:04:01;14.95;;;10.10;;
44358;SDS011;30077;52.474;13.326;2024-02-26T04:14:01;18.02;;;11.18;;
44358;SDS011;30077;52.474;13.326;2024-02-26T04:24:03;19.02;;;11.50;;
44358;SDS011;30077;52.474;13.326;2024-02-26T04:34:04;22.45;;;11.32;;
44358;SDS011;30077;52.474;13.326;2024-02-26T04:44:05;17.83;;;11.03;;
44358;SDS011;30077;52.474;13.326;2024-02-26T04:54:05;24.58;;;12.93;;
44358;SDS011;30077;52.474;13.326;2024-02-26T05:04:06;20.25;;;12.82;;
44358;SDS011;30077;52.474;13.326;2024-02-26T05:14:07;25.00;;;12.37;;
44358;SDS011;30077;52.474;13.326;2024-02-26T05:24:08;20.27;;;13.05;;
44358;SDS011;30077;52.474;13.326;2024-02-26T05:34:09;25.40;;;14.25;;
44358;SDS011;30077;52.474;13.326;2024-02-26T05:44:11;26.03;;;15.30;;
44358;SDS011;30077;52.474;13.326;2024-02-26T05:54:12;26.67;;;17.13;;
44358;SDS011;30077;52.474;13.326;2024-02-26T06:04:12;34.08;;;17.02;;
44358;SDS011;30077;52.474;13.326;2024-02-26T06:14:13;33.13;;;18.23;;
44358;SDS011;30077;52.474;13.326;2024-02-26T06:24:18;37.40;;;19.67;;
44358;SDS011;30077;52.474;13.326;2024-02-26T06:34:20;36.42;;;18.95;;
44358;SDS011;30077;52.474;13.326;2024-02-26T06:44:21;35.60;;;18.58;;
44358;SDS011;30077;52.474;13.326;2024-02-26T06:54:22;36.30;;;19.83;;
44358;SDS011;30077;52.474;13.326;2024-02-26T07:04:23;34.13;;;19.88;;
44358;SDS011;30077;52.474;13.326;2024-02-26T07:14:24;32.28;;;19.05;;
44358;SDS011;30077;52.474;13.326;2024-02-26T07:24:24;38.10;;;20.52;;
44358;SDS011;30077;52.474;13.326;2024-02-26T07:34:25;35.73;;;20.57;;
44358;SDS011;30077;52.474;13.326;2024-02-26T07:44:28;35.75;;;20.90;;
44358;SDS011;30077;52.474;13.326;2024-02-26T07:54:29;39.00;;;21.63;;
44358;SDS011;30077;52.474;13.326;2024-02-26T08:04:30;32.03;;;20.13;;
44358;SDS011;30077;52.474;13.326;2024-02-26T08:14:31;40.55;;;21.77;;
44358;SDS011;30077;52.474;13.326;2024-02-26T08:24:32;38.38;;;21.73;;
44358;SDS011;30077;52.474;13.326;2024-02-26T08:34:33;35.13;;;20.40;;
44358;SDS011;30077;52.474;13.326;2024-02-26T08:44:33;36.30;;;20.47;;
44358;SDS011;30077;52.474;13.326;2024-02-26T08:54:34;32.80;;;21.23;;
44358;SDS011;30077;52.474;13.326;2024-02-26T09:04:35;36.37;;;21.33;;
44358;SDS011;30077;52.474;13.326;2024-02-26T09:14:35;38.22;;;22.20;;
44358;SDS011;30077;52.474;13.326;2024-02-26T09:24:36;33.23;;;20.97;;
44358;SDS011;30077;52.474;13.326;2024-02-26T09:34:37;30.23;;;19.23;;
44358;SDS011;30077;52.474;13.326;2024-02-26T09:44:41;28.45;;;19.05;;
44358;SDS011;30077;52.474;13.326;2024-02-26T09:54:46;29.77;;;17.92;;
44358;SDS011;30077;52.474;13.326;2024-02-26T10:04:47;26.92;;;17.45;;
44358;SDS011;30077;52.474;13.326;2024-02-26T10:14:50;24.35;;;15.52;;
44358;SDS011;30077;52.474;13.326;2024-02-26T10:24:53;23.83;;;14.88;;
44358;SDS011;30077;52.474;13.326;2024-02-26T10:34:57;24.40;;;15.13;;
44358;SDS011;30077;52.474;13.326;2024-02-26T10:44:58;21.73;;;14.20;;
44358;SDS011;30077;52.474;13.326;2024-02-26T10:55:05;19.07;;;12.77;;
44358;SDS011;30077;52.474;13.326;2024-02-26T11:05:09;18.88;;;13.48;;
44358;SDS011;30077;52.474;13.326;2024-02-26T11:15:12;20.92;;;12.35;;
44358;SDS011;30077;52.474;13.326;2024-02-26T11:25:12;23.30;;;13.45;;
44358;SDS011;30077;52.474;13.326;2024-02-26T11:35:13;18.75;;;12.63;;
44358;SDS011;30077;52.474;13.326;2024-02-26T11:55:39;22.50;;;11.77;;
44358;SDS011;30077;52.474;13.326;2024-02-26T12:05:40;17.00;;;10.77;;
44358;SDS011;30077;52.474;13.326;2024-02-26T12:15:45;16.08;;;10.48;;
44358;SDS011;30077;52.474;13.326;2024-02-26T12:25:59;17.67;;;12.68;;
44358;SDS011;30077;52.474;13.326;2024-02-26T12:36:00;22.60;;;12.77;;
44358;SDS011;30077;52.474;13.326;2024-02-26T12:46:03;22.27;;;14.82;;
44358;SDS011;30077;52.474;13.326;2024-02-26T12:56:04;21.95;;;14.85;;
44358;SDS011;30077;52.474;13.326;2024-02-26T13:06:07;22.48;;;13.27;;
44358;SDS011;30077;52.474;13.326;2024-02-26T13:16:10;16.40;;;10.00;;
44358;SDS011;30077;52.474;13.326;2024-02-26T13:26:15;14.95;;;9.88;;
44358;SDS011;30077;52.474;13.326;2024-02-26T13:36:15;11.27;;;7.70;;
44358;SDS011;30077;52.474;13.326;2024-02-26T13:46:17;13.60;;;7.93;;
44358;SDS011;30077;52.474;13.326;2024-02-26T13:56:18;12.18;;;6.72;;
44358;SDS011;30077;52.474;13.326;2024-02-26T14:06:22;16.70;;;6.90;;
44358;SDS011;30077;52.474;13.326;2024-02-26T14:16:23;13.43;;;6.50;;
44358;SDS011;30077;52.474;13.326;2024-02-26T14:26:24;9.77;;;6.38;;
44358;SDS011;30077;52.474;13.326;2024-02-26T14:36:25;12.90;;;6.78;;
44358;SDS011;30077;52.474;13.326;2024-02-26T14:46:26;13.00;;;7.13;;
44358;SDS011;30077;52.474;13.326;2024-02-26T14:56:26;15.90;;;8.20;;
44358;SDS011;30077;52.474;13.326;2024-02-26T15:06:27;15.90;;;8.70;;
44358;SDS011;30077;52.474;13.326;2024-02-26T15:16:29;15.10;;;9.63;;
44358;SDS011;30077;52.474;13.326;2024-02-26T15:26:30;16.02;;;9.00;;
44358;SDS011;30077;52.474;13.326;2024-02-26T15:36:31;14.57;;;9.70;;
44358;SDS011;30077;52.474;13.326;2024-02-26T15:46:31;17.43;;;10.30;;
44358;SDS011;30077;52.474;13.326;2024-02-26T15:56:32;17.67;;;11.70;;
44358;SDS011;30077;52.474;13.326;2024-02-26T16:06:36;23.48;;;12.18;;
44358;SDS011;30077;52.474;13.326;2024-02-26T16:16:49;19.45;;;12.45;;
44358;SDS011;30077;52.474;13.326;2024-02-26T16:26:56;20.38;;;11.95;;
44358;SDS011;30077;52.474;13.326;2024-02-26T16:36:57;21.92;;;13.10;;
44358;SDS011;30077;52.474;13.326;2024-02-26T16:46:58;23.57;;;14.40;;
44358;SDS011;30077;52.474;13.326;2024-02-26T16:56:58;23.17;;;14.50;;
44358;SDS011;30077;52.474;13.326;2024-02-26T17:06:59;26.92;;;15.65;;
44358;SDS011;30077;52.474;13.326;2024-02-26T17:17:01;23.45;;;14.32;;
44358;SDS011;30077;52.474;13.326;2024-02-26T17:27:03;26.85;;;15.27;;
44358;SDS011;30077;52.474;13.326;2024-02-26T17:37:04;36.25;;;19.27;;
44358;SDS011;30077;52.474;13.326;2024-02-26T17:47:05;44.92;;;22.00;;
44358;SDS011;30077;52.474;13.326;2024-02-26T17:57:06;48.85;;;22.13;;
44358;SDS011;30077;52.474;13.326;2024-02-26T18:07:07;42.08;;;20.95;;
44358;SDS011;30077;52.474;13.326;2024-02-26T18:17:08;40.03;;;20.65;;
44358;SDS011;30077;52.474;13.326;2024-02-26T18:27:09;35.03;;;19.85;;
44358;SDS011;30077;52.474;13.326;2024-02-26T18:37:09;31.83;;;18.60;;
44358;SDS011;30077;52.474;13.326;2024-02-26T18:47:11;27.83;;;16.45;;
44358;SDS011;30077;52.474;13.326;2024-02-26T18:57:12;29.48;;;16.08;;
44358;SDS011;30077;52.474;13.326;2024-02-26T19:07:13;31.25;;;17.15;;
44358;SDS011;30077;52.474;13.326;2024-02-26T19:17:13;24.43;;;15.43;;
44358;SDS011;30077;52.474;13.326;2024-02-26T19:27:16;21.80;;;14.35;;
44358;SDS011;30077;52.474;13.326;2024-02-26T19:37:17;20.70;;;13.27;;
44358;SDS011;30077;52.474;13.326;2024-02-26T19:47:18;22.00;;;12.95;;
44358;SDS011;30077;52.474;13.326;2024-02-26T19:57:19;18.15;;;11.55;;
44358;SDS011;30077;52.474;13.326;2024-02-26T20:07:19;18.00;;;11.77;;
44358;SDS011;30077;52.474;13.326;2024-02-26T20:17:21;21.30;;;11.63;;
44358;SDS011;30077;52.474;13.326;2024-02-26T20:27:21;18.50;;;11.45;;
44358;SDS011;30077;52.474;13.326;2024-02-26T20:37:22;19.47;;;11.70;;
44358;SDS011;30077;52.474;13.326;2024-02-26T20:47:23;17.97;;;11.07;;
44358;SDS011;30077;52.474;13.326;2024-02-26T20:57:24;15.90;;;9.57;;
44358;SDS011;30077;52.474;13.326;2024-02-26T21:07:25;16.50;;;10.10;;
44358;SDS011;30077;52.474;13.326;2024-02-26T21:17:27;16.07;;;10.27;;
44358;SDS011;30077;52.474;13.326;2024-02-26T21:27:28;14.48;;;9.85;;
44358;SDS011;30077;52.474;13.326;2024-02-26T21:37:29;15.73;;;9.65;;
44358;SDS011;30077;52.474;13.326;2024-02-26T21:47:29;16.30;;;9.82;;
44358;SDS011;30077;52.474;13.326;2024-02-26T21:57:30;12.50;;;8.53;;
44358;SDS011;30077;52.474;13.326;2024-02-26T22:07:33;14.18;;;9.43;;
44358;SDS011;30077;52.474;13.326;2024-02-26T22:17:34;14.10;;;9.45;;
44358;SDS011;30077;52.474;13.326;2024-02-26T22:27:36;16.20;;;9.95;;
44358;SDS011;30077;52.474;13.326;2024-02-26T22:37:37;14.65;;;9.75;;
44358;SDS011;30077;52.474;13.326;2024-02-26T22:47:38;20.38;;;10.00;;
44358;SDS011;30077;52.474;13.326;2024-02-26T22:57:39;15.10;;;9.15;;
44358;SDS011;30077;52.474;13.326;2024-02-26T23:07:41;14.80;;;9.80;;
44358;SDS011;30077;52.474;13.326;2024-02-26T23:17:42;15.02;;;9.60;;
44358;SDS011;30077;52.474;13.326;2024-02-26T23:27:45;17.50;;;10.20;;
44358;SDS011;30077;52.474;13.326;2024-02-26T23:37:47;16.77;;;9.93;;
44358;SDS011;30077;52.474;13.326;2024-02-26T23:47:48;14.38;;;10.15;;
44358;SDS011;30077;52.474;13.326;2024-02-26T23:57:49;14.48;;;8.10;;
